Terminal Aerodrome Forecast
Issued by NWS

Home | Current Version | Previous Version | Text Only | Print | Product List | Glossary On
Versions: 1 2 3 4 5 6 7 8 9 10 11 12 13 14 15 16 17 18 19 20 21 22 23 24 25 26 27 28 29 30
000
FTAK31 PAFA 252143 AAA
TAFAUN
TAF AMD
PAUN 252143Z 2522/2618 08015KT P6SM BKN045
     FM260600 09012KT P6SM BKN060
     FM260900 09015KT P6SM -SN BKN035
     FM261200 09020KT P6SM -SN BKN035=

USA.gov is the U.S. government's official web portal to all federal, state and local government web resources and services.